Date,TemperatureHighF,TemperatureAvgF,TemperatureLowF,DewpointHighF,DewpointAvgF,DewpointLowF,HumidityHigh,HumidityAvg,HumidityLow,PressureMaxIn,PressureMinIn,WindSpeedMaxMPH,WindSpeedAvgMPH,GustSpeedMaxMPH,PrecipitationSumIn
2013-2-1,27,16,2,17,7,-3,84,67,54,30.40,30.06,14,6,0,0.00
2013-2-2,44,33,23,36,26,17,98,75,63,30.11,29.94,10,5,0,0.00
2013-2-3,44,37,32,34,25,17,83,63,41,30.18,29.78,13,6,0,0.00
2013-2-4,46,34,20,36,28,20,97,80,65,29.89,29.69,17,6,0,0.00
2013-2-5,55,36,20,39,28,20,98,77,48,30.02,29.79,12,4,0,0.00
2013-2-6,61,44,25,42,35,24,98,73,49,30.04,29.81,16,6,0,0.00
2013-2-7,49,43,33,48,41,31,98,94,70,30.09,29.78,17,7,0,1.02
2013-2-8,36,32,29,31,29,27,94,89,79,30.27,30.08,17,7,0,0.00
2013-2-9,48,36,28,38,32,27,98,86,62,30.18,29.70,15,9,0,0.00
2013-2-10,57,47,37,52,39,26,98,76,52,29.80,29.35,26,13,0,0.03
2013-2-11,50,38,29,32,27,24,85,66,46,30.06,29.82,10,4,0,0.00
2013-2-12,41,32,23,31,27,22,98,82,63,30.08,29.85,7,2,0,0.00
2013-2-13,56,40,24,37,30,22,98,72,43,29.85,29.69,12,4,0,0.00
2013-2-14,51,42,32,37,32,26,88,69,51,30.05,29.71,16,6,0,0.00
2013-2-15,37,30,23,30,18,13,82,61,39,30.27,30.06,15,8,0,0.00
2013-2-16,36,28,14,24,19,10,90,69,54,30.23,30.00,10,4,0,0.00
2013-2-17,57,42,26,37,30,21,81,63,47,30.01,29.62,16,7,0,0.00
2013-2-18,55,43,26,52,36,19,98,76,57,29.96,29.44,23,11,0,0.09
2013-2-19,33,25,16,19,12,6,81,60,37,30.27,29.96,20,8,0,0.00
2013-2-20,26,19,13,16,11,4,77,70,63,30.31,30.13,11,7,0,0.00
2013-2-21,26,23,21,26,21,14,98,91,72,30.14,29.66,20,9,0,0.00
2013-2-22,34,26,12,34,23,-58,98,96,1,29.98,29.66,8,3,0,0.13
2013-2-23,32,20,6,30,18,5,98,91,68,29.99,29.87,10,3,0,0.01
2013-2-24,40,29,10,32,23,9,98,82,66,29.96,29.84,10,4,0,0.06
2013-2-25,37,32,25,33,28,23,98,85,75,29.89,29.57,20,10,0,0.00
2013-2-26,33,32,30,32,31,29,98,98,98,29.74,29.43,17,10,0,0.04
2013-2-27,34,31,29,31,29,26,98,92,82,29.91,29.72,16,8,0,0.07
2013-2-28,34,30,26,29,27,24,92,86,77,30.10,29.91,16,9,0,0.00